Time,TemperatureF,DewpointF,PressureIn,WindDirection,WindDirectionDegrees,WindSpeedMPH,WindSpeedGustMPH,Humidity,HourlyPrecipIn,Conditions,Clouds,dailyrainin,SoftwareType,DateUTC
2013-11-29 00:01:00,33.6,4.0,31.16,SE,144,0.0,0.0,28,0.00,,,0.00,WeatherCatV1.02B3,2013-11-29 05:01:00,
2013-11-29 00:04:00,33.7,0.8,31.16,SSE,162,0.0,0.0,24,0.00,,,0.00,WeatherCatV1.02B3,2013-11-29 05:04:00,
2013-11-29 00:09:00,33.7,3.3,31.16,SSE,162,0.0,0.0,27,0.00,,,0.00,WeatherCatV1.02B3,2013-11-29 05:09:00,
2013-11-29 00:14:00,33.7,3.3,31.16,East,99,0.0,0.0,27,0.00,,,0.00,WeatherCatV1.02B3,2013-11-29 05:14:00,
2013-11-29 00:19:00,33.7,4.1,31.16,SE,129,0.0,1.0,28,0.00,,,0.00,WeatherCatV1.02B3,2013-11-29 05:19:00,
2013-11-29 00:24:00,33.6,1.6,31.16,SE,140,0.0,3.0,25,0.00,,,0.00,WeatherCatV1.02B3,2013-11-29 05:24:00,
2013-11-29 00:29:00,33.7,0.8,31.16,SSE,155,0.0,0.0,24,0.00,,,0.00,WeatherCatV1.02B3,2013-11-29 05:29:00,
2013-11-29 00:34:00,33.7,2.5,31.16,SSE,147,0.0,0.0,26,0.00,,,0.00,WeatherCatV1.02B3,2013-11-29 05:34:00,
2013-11-29 00:39:00,33.6,3.2,31.15,SSE,163,0.0,0.0,27,0.00,,,0.00,WeatherCatV1.02B3,2013-11-29 05:39:00,
2013-11-29 00:44:00,33.5,2.3,31.15,SSE,159,0.0,7.0,26,0.00,,,0.00,WeatherCatV1.02B3,2013-11-29 05:44:00,
2013-11-29 00:49:00,33.5,1.5,31.15,SSE,150,0.0,1.0,25,0.00,,,0.00,WeatherCatV1.02B3,2013-11-29 05:49:00,
2013-11-29 00:54:00,33.3,3.0,31.17,SE,138,0.0,0.0,27,0.00,,,0.00,WeatherCatV1.02B3,2013-11-29 05:54:00,
2013-11-29 00:59:00,33.0,3.5,31.17,South,184,0.0,0.0,28,0.00,,,0.00,WeatherCatV1.02B3,2013-11-29 05:59:00,
2013-11-29 01:04:00,32.6,3.1,31.16,SE,138,0.0,0.0,28,0.00,,,0.00,WeatherCatV1.02B3,2013-11-29 06:04:00,
2013-11-29 01:09:00,32.5,3.1,31.17,SSE,163,0.0,0.0,28,0.00,,,0.00,WeatherCatV1.02B3,2013-11-29 06:09:00,
2013-11-29 01:14:00,32.4,2.2,31.16,South,178,0.0,0.0,27,0.00,,,0.00,WeatherCatV1.02B3,2013-11-29 06:14:00,
2013-11-29 01:19:00,32.4,2.2,31.16,SE,134,0.0,0.0,27,0.00,,,0.00,WeatherCatV1.02B3,2013-11-29 06:19:00,
2013-11-29 01:24:00,32.1,2.7,31.16,South,176,0.0,0.0,28,0.00,,,0.00,WeatherCatV1.02B3,2013-11-29 06:24:00,
2013-11-29 01:29:00,31.8,3.9,31.16,SE,142,0.0,0.0,30,0.00,,,0.00,WeatherCatV1.02B3,2013-11-29 06:29:00,
2013-11-29 01:34:00,31.5,2.9,31.16,South,169,0.0,0.0,29,0.00,,,0.00,WeatherCatV1.02B3,2013-11-29 06:34:00,
2013-11-29 01:39:00,31.1,4.0,31.17,SE,140,0.0,0.0,31,0.00,,,0.00,WeatherCatV1.02B3,2013-11-29 06:39:00,
2013-11-29 01:44:00,30.7,4.4,31.17,South,191,0.0,3.0,32,0.00,,,0.00,WeatherCatV1.02B3,2013-11-29 06:44:00,
2013-11-29 01:49:00,30.5,2.8,31.17,SSE,152,0.0,6.0,30,0.00,,,0.00,WeatherCatV1.02B3,2013-11-29 06:49:00,
2013-11-29 01:54:00,30.2,2.5,31.17,South,176,0.0,1.0,30,0.00,,,0.00,WeatherCatV1.02B3,2013-11-29 06:54:00,
2013-11-29 01:59:00,30.2,1.8,31.17,South,172,0.0,0.0,29,0.00,,,0.00,WeatherCatV1.02B3,2013-11-29 06:59:00,
2013-11-29 02:04:00,30.1,3.2,31.18,North,5,1.0,3.0,31,0.00,,,0.00,WeatherCatV1.02B3,2013-11-29 07:04:00,
2013-11-29 02:09:00,29.8,3.6,31.18,SSE,167,0.0,0.0,32,0.00,,,0.00,WeatherCatV1.02B3,2013-11-29 07:09:00,
2013-11-29 02:14:00,29.5,4.0,31.18,ESE,103,2.0,3.0,33,0.00,,,0.00,WeatherCatV1.02B3,2013-11-29 07:14:00,
2013-11-29 02:19:00,29.2,4.4,31.19,SE,130,0.0,0.0,34,0.00,,,0.00,WeatherCatV1.02B3,2013-11-29 07:19:00,
2013-11-29 02:24:00,28.9,2.8,31.19,SE,128,0.0,0.0,32,0.00,,,0.00,WeatherCatV1.02B3,2013-11-29 07:24:00,
2013-11-29 02:29:00,28.8,4.6,31.19,SSE,165,0.0,0.0,35,0.00,,,0.00,WeatherCatV1.02B3,2013-11-29 07:29:00,
2013-11-29 02:34:00,28.8,2.7,31.19,SW,218,0.0,0.0,32,0.00,,,0.00,WeatherCatV1.02B3,2013-11-29 07:34:00,
2013-11-29 02:39:00,29.2,5.6,31.19,SSE,163,0.0,4.0,36,0.00,,,0.00,WeatherCatV1.02B3,2013-11-29 07:39:00,
2013-11-29 02:44:00,29.2,3.7,31.19,West,263,0.0,1.0,33,0.00,,,0.00,WeatherCatV1.02B3,2013-11-29 07:44:00,
2013-11-29 02:49:00,29.2,4.4,31.19,SSE,150,0.0,1.0,34,0.00,,,0.00,WeatherCatV1.02B3,2013-11-29 07:49:00,
2013-11-29 02:54:00,29.0,2.9,31.19,ENE,78,0.0,1.0,32,0.00,,,0.00,WeatherCatV1.02B3,2013-11-29 07:54:00,
2013-11-29 02:59:00,28.9,4.1,31.19,ESE,115,0.0,0.0,34,0.00,,,0.00,WeatherCatV1.02B3,2013-11-29 07:59:00,
2013-11-29 03:04:00,28.7,3.9,31.19,East,89,0.0,3.0,34,0.00,,,0.00,WeatherCatV1.02B3,2013-11-29 08:04:00,
2013-11-29 03:09:00,28.5,5.0,31.19,ESE,103,0.0,0.0,36,0.00,,,0.00,WeatherCatV1.02B3,2013-11-29 08:09:00,
2013-11-29 03:14:00,28.2,4.7,31.19,East,87,0.0,2.0,36,0.00,,,0.00,WeatherCatV1.02B3,2013-11-29 08:14:00,
2013-11-29 03:19:00,28.0,5.1,31.20,East,87,0.0,0.0,37,0.00,,,0.00,WeatherCatV1.02B3,2013-11-29 08:19:00,
2013-11-29 03:24:00,27.8,5.5,31.19,East,89,0.0,0.0,38,0.00,,,0.00,WeatherCatV1.02B3,2013-11-29 08:24:00,
2013-11-29 03:29:00,27.6,5.9,31.19,East,89,0.0,0.0,39,0.00,,,0.00,WeatherCatV1.02B3,2013-11-29 08:29:00,
2013-11-29 03:34:00,27.3,7.3,31.20,East,89,0.0,0.0,42,0.00,,,0.00,WeatherCatV1.02B3,2013-11-29 08:34:00,
2013-11-29 03:39:00,26.9,8.9,31.20,East,89,0.0,0.0,46,0.00,,,0.00,WeatherCatV1.02B3,2013-11-29 08:39:00,
2013-11-29 03:44:00,26.4,8.9,31.20,East,89,0.0,0.0,47,0.00,,,0.00,WeatherCatV1.02B3,2013-11-29 08:44:00,
2013-11-29 03:49:00,26.1,10.0,31.20,East,89,0.0,0.0,50,0.00,,,0.00,WeatherCatV1.02B3,2013-11-29 08:49:00,
2013-11-29 03:54:00,25.8,10.2,31.20,East,89,0.0,0.0,51,0.00,,,0.00,WeatherCatV1.02B3,2013-11-29 08:54:00,
2013-11-29 03:59:00,25.3,10.2,31.21,East,89,0.0,0.0,52,0.00,,,0.00,WeatherCatV1.02B3,2013-11-29 08:59:00,
2013-11-29 04:04:00,25.0,10.3,31.21,East,89,0.0,0.0,53,0.00,,,0.00,WeatherCatV1.02B3,2013-11-29 09:04:00,
2013-11-29 04:09:00,24.9,10.6,31.21,East,86,0.0,0.0,54,0.00,,,0.00,WeatherCatV1.02B3,2013-11-29 09:09:00,
2013-11-29 04:14:00,25.0,11.1,31.21,East,86,0.0,0.0,55,0.00,,,0.00,WeatherCatV1.02B3,2013-11-29 09:14:00,
2013-11-29 04:19:00,25.1,11.6,31.21,East,86,0.0,0.0,56,0.00,,,0.00,WeatherCatV1.02B3,2013-11-29 09:19:00,
2013-11-29 04:24:00,25.2,11.7,31.21,SE,144,0.0,0.0,56,0.00,,,0.00,WeatherCatV1.02B3,2013-11-29 09:24:00,
2013-11-29 04:29:00,25.2,12.1,31.21,SE,144,0.0,0.0,57,0.00,,,0.00,WeatherCatV1.02B3,2013-11-29 09:29:00,
2013-11-29 04:34:00,25.4,12.3,31.21,SE,143,0.0,0.0,57,0.00,,,0.00,WeatherCatV1.02B3,2013-11-29 09:34:00,
2013-11-29 04:39:00,25.9,12.4,31.21,SE,140,0.0,0.0,56,0.00,,,0.00,WeatherCatV1.02B3,2013-11-29 09:39:00,
2013-11-29 04:44:00,26.8,13.6,31.20,ESE,117,0.0,0.0,57,0.00,,,0.00,WeatherCatV1.02B3,2013-11-29 09:44:00,
2013-11-29 04:49:00,27.8,14.6,31.20,ESE,117,0.0,1.0,57,0.00,,,0.00,WeatherCatV1.02B3,2013-11-29 09:49:00,
2013-11-29 04:54:00,28.4,14.7,31.20,ESE,117,0.0,0.0,56,0.00,,,0.00,WeatherCatV1.02B3,2013-11-29 09:54:00,
2013-11-29 04:59:00,28.4,14.7,31.20,ESE,117,0.0,0.0,56,0.00,,,0.00,WeatherCatV1.02B3,2013-11-29 09:59:00,
2013-11-29 05:04:00,28.0,14.8,31.21,ESE,117,0.0,0.0,57,0.00,,,0.00,WeatherCatV1.02B3,2013-11-29 10:04:00,
2013-11-29 05:09:00,27.6,15.2,31.22,ESE,117,0.0,0.0,59,0.00,,,0.00,WeatherCatV1.02B3,2013-11-29 10:09:00,
2013-11-29 05:14:00,27.5,15.1,31.22,ESE,117,0.0,1.0,59,0.00,,,0.00,WeatherCatV1.02B3,2013-11-29 10:14:00,
2013-11-29 05:19:00,27.5,15.5,31.22,ESE,117,0.0,0.0,60,0.00,,,0.00,WeatherCatV1.02B3,2013-11-29 10:19:00,
2013-11-29 05:24:00,27.4,15.0,31.23,ESE,117,0.0,0.0,59,0.00,,,0.00,WeatherCatV1.02B3,2013-11-29 10:24:00,
2013-11-29 05:29:00,26.8,14.8,31.24,ESE,117,0.0,0.0,60,0.00,,,0.00,WeatherCatV1.02B3,2013-11-29 10:29:00,
2013-11-29 05:34:00,26.3,13.6,31.24,ESE,117,0.0,0.0,58,0.00,,,0.00,WeatherCatV1.02B3,2013-11-29 10:34:00,
2013-11-29 05:39:00,25.9,13.2,31.24,NE,44,0.0,0.0,58,0.00,,,0.00,WeatherCatV1.02B3,2013-11-29 10:39:00,
2013-11-29 05:44:00,25.5,13.2,31.24,ESE,105,0.0,0.0,59,0.00,,,0.00,WeatherCatV1.02B3,2013-11-29 10:44:00,
2013-11-29 05:49:00,25.1,12.8,31.26,ESE,105,0.0,0.0,59,0.00,,,0.00,WeatherCatV1.02B3,2013-11-29 10:49:00,
2013-11-29 05:54:00,24.8,12.9,31.26,ESE,105,0.0,0.0,60,0.00,,,0.00,WeatherCatV1.02B3,2013-11-29 10:54:00,
2013-11-29 05:59:00,24.8,13.3,31.26,ESE,105,0.0,0.0,61,0.00,,,0.00,WeatherCatV1.02B3,2013-11-29 10:59:00,
2013-11-29 06:04:00,25.0,14.6,31.26,SE,124,0.0,0.0,64,0.00,,,0.00,WeatherCatV1.02B3,2013-11-29 11:04:00,
2013-11-29 06:09:00,25.6,15.5,31.26,SE,136,0.0,1.0,65,0.00,,,0.00,WeatherCatV1.02B3,2013-11-29 11:09:00,
2013-11-29 06:14:00,26.3,16.5,31.26,SE,126,0.0,1.0,66,0.00,,,0.00,WeatherCatV1.02B3,2013-11-29 11:14:00,
2013-11-29 06:19:00,26.9,16.4,31.25,SE,126,0.0,0.0,64,0.00,,,0.00,WeatherCatV1.02B3,2013-11-29 11:19:00,
2013-11-29 06:24:00,27.3,16.4,31.26,SE,126,0.0,0.0,63,0.00,,,0.00,WeatherCatV1.02B3,2013-11-29 11:24:00,
2013-11-29 06:29:00,27.6,16.7,31.26,ESE,121,0.0,0.0,63,0.00,,,0.00,WeatherCatV1.02B3,2013-11-29 11:29:00,
2013-11-29 06:34:00,27.6,15.2,31.27,ESE,121,0.0,0.0,59,0.00,,,0.00,WeatherCatV1.02B3,2013-11-29 11:34:00,
2013-11-29 06:39:00,27.1,15.1,31.27,ESE,120,0.0,0.0,60,0.00,,,0.00,WeatherCatV1.02B3,2013-11-29 11:39:00,
2013-11-29 06:44:00,27.0,16.5,31.27,ESE,118,0.0,0.0,64,0.00,,,0.00,WeatherCatV1.02B3,2013-11-29 11:44:00,
2013-11-29 06:49:00,27.4,17.2,31.27,ESE,117,0.0,0.0,65,0.00,,,0.00,WeatherCatV1.02B3,2013-11-29 11:49:00,
2013-11-29 06:54:00,27.6,17.4,31.27,ESE,118,0.0,1.0,65,0.00,,,0.00,WeatherCatV1.02B3,2013-11-29 11:54:00,
2013-11-29 06:59:00,27.4,16.9,31.27,ESE,121,0.0,0.0,64,0.00,,,0.00,WeatherCatV1.02B3,2013-11-29 11:59:00,
2013-11-29 07:04:00,27.1,16.2,31.28,ESE,107,0.0,1.0,63,0.00,,,0.00,WeatherCatV1.02B3,2013-11-29 12:04:00,
2013-11-29 07:09:00,26.5,14.9,31.28,ESE,119,0.0,0.0,61,0.00,,,0.00,WeatherCatV1.02B3,2013-11-29 12:09:00,
2013-11-29 07:14:00,26.1,14.5,31.29,ESE,113,0.0,0.0,61,0.00,,,0.00,WeatherCatV1.02B3,2013-11-29 12:14:00,
2013-11-29 07:19:00,25.7,14.9,31.30,ESE,113,0.0,0.0,63,0.00,,,0.00,WeatherCatV1.02B3,2013-11-29 12:19:00,
2013-11-29 07:24:00,25.3,14.1,31.30,ESE,113,0.0,0.0,62,0.00,,,0.00,WeatherCatV1.02B3,2013-11-29 12:24:00,
2013-11-29 07:29:00,24.9,13.4,31.30,ESE,113,0.0,0.0,61,0.00,,,0.00,WeatherCatV1.02B3,2013-11-29 12:29:00,
2013-11-29 07:34:00,24.7,13.9,31.30,ESE,113,0.0,0.0,63,0.00,,,0.00,WeatherCatV1.02B3,2013-11-29 12:34:00,
2013-11-29 07:39:00,25.0,14.9,31.30,NE,42,0.0,0.0,65,0.00,,,0.00,WeatherCatV1.02B3,2013-11-29 12:39:00,
2013-11-29 07:44:00,26.0,16.2,31.30,North,5,0.0,0.0,66,0.00,,,0.00,WeatherCatV1.02B3,2013-11-29 12:44:00,
2013-11-29 07:49:00,26.8,17.0,31.29,North,5,0.0,0.0,66,0.00,,,0.00,WeatherCatV1.02B3,2013-11-29 12:49:00,
2013-11-29 07:54:00,27.5,17.3,31.29,North,5,0.0,0.0,65,0.00,,,0.00,WeatherCatV1.02B3,2013-11-29 12:54:00,
2013-11-29 07:59:00,28.1,17.2,31.29,North,355,0.0,0.0,63,0.00,,,0.00,WeatherCatV1.02B3,2013-11-29 12:59:00,
2013-11-29 08:04:00,28.6,17.6,31.28,ENE,74,0.0,0.0,63,0.00,,,0.00,WeatherCatV1.02B3,2013-11-29 13:04:00,
2013-11-29 08:09:00,29.5,18.8,31.28,NNW,334,0.0,0.0,64,0.00,,,0.00,WeatherCatV1.02B3,2013-11-29 13:09:00,
2013-11-29 08:14:00,30.9,20.2,31.27,East,90,0.0,0.0,64,0.00,,,0.00,WeatherCatV1.02B3,2013-11-29 13:14:00,
2013-11-29 08:19:00,32.2,20.3,31.27,SE,134,0.0,1.0,61,0.00,,,0.00,WeatherCatV1.02B3,2013-11-29 13:19:00,
2013-11-29 08:24:00,33.4,21.0,31.26,SSE,151,0.0,0.0,60,0.00,,,0.00,WeatherCatV1.02B3,2013-11-29 13:24:00,
2013-11-29 08:29:00,34.4,21.2,31.26,North,350,0.0,0.0,58,0.00,,,0.00,WeatherCatV1.02B3,2013-11-29 13:29:00,
2013-11-29 08:34:00,34.8,21.5,31.25,NNW,346,0.0,0.0,58,0.00,,,0.00,WeatherCatV1.02B3,2013-11-29 13:34:00,
2013-11-29 08:39:00,35.3,21.2,31.26,East,86,0.0,1.0,56,0.00,,,0.00,WeatherCatV1.02B3,2013-11-29 13:39:00,
2013-11-29 08:44:00,35.5,20.1,31.26,NNE,18,0.0,0.0,53,0.00,,,0.00,WeatherCatV1.02B3,2013-11-29 13:44:00,
2013-11-29 08:49:00,35.7,20.3,31.26,SSE,163,0.0,0.0,53,0.00,,,0.00,WeatherCatV1.02B3,2013-11-29 13:49:00,
2013-11-29 08:54:00,36.3,21.3,31.26,North,350,0.0,1.0,54,0.00,,,0.00,WeatherCatV1.02B3,2013-11-29 13:54:00,
2013-11-29 08:59:00,36.9,20.5,31.25,SSE,161,0.0,1.0,51,0.00,,,0.00,WeatherCatV1.02B3,2013-11-29 13:59:00,
2013-11-29 09:04:00,37.5,22.8,31.23,NNW,348,0.0,0.0,55,0.00,,,0.00,WeatherCatV1.02B3,2013-11-29 14:04:00,
2013-11-29 09:09:00,37.8,21.3,31.23,North,351,0.0,0.0,51,0.00,,,0.00,WeatherCatV1.02B3,2013-11-29 14:09:00,
2013-11-29 09:26:00,38.4,22.3,31.23,NE,36,0.0,0.0,52,0.00,,,0.00,WeatherCatV1.02B3,2013-11-29 14:26:00,
2013-11-29 09:31:00,38.9,21.4,31.23,NNW,346,0.0,0.0,49,0.00,,,0.00,WeatherCatV1.02B3,2013-11-29 14:31:00,
2013-11-29 09:36:00,39.2,22.1,31.24,North,355,0.0,0.0,50,0.00,,,0.00,WeatherCatV1.02B3,2013-11-29 14:36:00,
2013-11-29 09:41:00,39.4,20.4,31.24,NNW,338,0.0,1.0,46,0.00,,,0.00,WeatherCatV1.02B3,2013-11-29 14:41:00,
2013-11-29 09:46:00,39.6,20.5,31.23,NNW,338,0.0,1.0,46,0.00,,,0.00,WeatherCatV1.02B3,2013-11-29 14:46:00,
2013-11-29 09:51:00,39.8,19.1,31.23,NNW,342,0.0,0.0,43,0.00,,,0.00,WeatherCatV1.02B3,2013-11-29 14:51:00,
2013-11-29 09:56:00,40.3,21.7,31.23,NE,36,0.0,0.0,47,0.00,,,0.00,WeatherCatV1.02B3,2013-11-29 14:56:00,
2013-11-29 10:01:00,40.9,17.3,31.23,NNW,331,0.0,5.0,38,0.00,,,0.00,WeatherCatV1.02B3,2013-11-29 15:01:00,
2013-11-29 10:06:00,41.1,18.1,31.24,NNW,329,0.0,0.0,39,0.00,,,0.00,WeatherCatV1.02B3,2013-11-29 15:06:00,
2013-11-29 10:11:00,41.3,21.6,31.24,NNE,30,0.0,0.0,45,0.00,,,0.00,WeatherCatV1.02B3,2013-11-29 15:11:00,
2013-11-29 10:16:00,41.6,20.8,31.23,North,9,2.0,3.0,43,0.00,,,0.00,WeatherCatV1.02B3,2013-11-29 15:16:00,
2013-11-29 10:21:00,41.5,20.1,31.23,ENE,65,0.0,1.0,42,0.00,,,0.00,WeatherCatV1.02B3,2013-11-29 15:21:00,
2013-11-29 10:26:00,41.6,22.4,31.23,NNE,30,0.0,0.0,46,0.00,,,0.00,WeatherCatV1.02B3,2013-11-29 15:26:00,
2013-11-29 10:31:00,41.5,22.3,31.23,North,10,0.0,0.0,46,0.00,,,0.00,WeatherCatV1.02B3,2013-11-29 15:31:00,
2013-11-29 10:36:00,41.4,20.6,31.24,North,9,0.0,0.0,43,0.00,,,0.00,WeatherCatV1.02B3,2013-11-29 15:36:00,
2013-11-29 10:41:00,41.6,23.4,31.24,NNE,19,0.0,0.0,48,0.00,,,0.00,WeatherCatV1.02B3,2013-11-29 15:41:00,
2013-11-29 10:46:00,41.7,22.5,31.24,North,355,0.0,1.0,46,0.00,,,0.01,WeatherCatV1.02B3,2013-11-29 15:46:00,
2013-11-29 10:51:00,41.4,21.7,31.25,North,0,0.0,0.0,45,0.00,,,0.01,WeatherCatV1.02B3,2013-11-29 15:51:00,
2013-11-29 10:56:00,41.3,21.6,31.25,North,0,0.0,0.0,45,0.00,,,0.01,WeatherCatV1.02B3,2013-11-29 15:56:00,
2013-11-29 11:01:00,41.1,20.9,31.24,North,0,0.0,1.0,44,0.00,,,0.01,WeatherCatV1.02B3,2013-11-29 16:01:00,
2013-11-29 11:06:00,41.2,21.0,31.24,North,5,0.0,1.0,44,0.00,,,0.01,WeatherCatV1.02B3,2013-11-29 16:06:00,
2013-11-29 11:11:00,40.9,21.2,31.23,NNW,346,0.0,0.0,45,0.00,,,0.01,WeatherCatV1.02B3,2013-11-29 16:11:00,
2013-11-29 11:16:00,40.5,20.3,31.23,NNW,348,0.0,0.0,44,0.00,,,0.01,WeatherCatV1.02B3,2013-11-29 16:16:00,
2013-11-29 11:21:00,40.4,20.8,31.24,NNW,348,0.0,1.0,45,0.00,,,0.01,WeatherCatV1.02B3,2013-11-29 16:21:00,
2013-11-29 11:26:00,40.6,22.5,31.23,North,350,0.0,0.0,48,0.00,,,0.01,WeatherCatV1.02B3,2013-11-29 16:26:00,
2013-11-29 11:31:00,41.0,20.8,31.23,North,350,0.0,0.0,44,0.00,,,0.01,WeatherCatV1.02B3,2013-11-29 16:31:00,
2013-11-29 11:36:00,41.3,21.0,31.23,NNW,347,1.0,1.0,44,0.00,,,0.01,WeatherCatV1.02B3,2013-11-29 16:36:00,
2013-11-29 11:41:00,41.3,20.0,31.23,NNW,347,0.0,0.0,42,0.00,,,0.02,WeatherCatV1.02B3,2013-11-29 16:41:00,
2013-11-29 11:46:00,41.6,19.7,31.22,NNW,347,0.0,0.0,41,0.00,,,0.02,WeatherCatV1.02B3,2013-11-29 16:46:00,
2013-11-29 11:51:00,42.1,20.1,31.22,NNW,347,0.0,0.0,41,0.00,,,0.02,WeatherCatV1.02B3,2013-11-29 16:51:00,
2013-11-29 11:56:00,42.2,18.4,31.22,NNW,338,0.0,0.0,38,0.00,,,0.02,WeatherCatV1.02B3,2013-11-29 16:56:00,
2013-11-29 12:01:00,42.2,20.2,31.23,NNW,337,0.0,1.0,41,0.00,,,0.02,WeatherCatV1.02B3,2013-11-29 17:01:00,
2013-11-29 12:06:00,42.3,18.5,31.23,NNW,327,0.0,0.0,38,0.00,,,0.02,WeatherCatV1.02B3,2013-11-29 17:06:00,
2013-11-29 12:11:00,42.5,18.1,31.21,NW,319,0.0,1.0,37,0.00,,,0.02,WeatherCatV1.02B3,2013-11-29 17:11:00,
2013-11-29 12:16:00,42.4,17.4,31.22,North,350,0.0,0.0,36,0.00,,,0.02,WeatherCatV1.02B3,2013-11-29 17:16:00,
2013-11-29 12:21:00,42.6,20.0,31.21,NW,325,4.0,5.0,40,0.00,,,0.02,WeatherCatV1.02B3,2013-11-29 17:21:00,
2013-11-29 12:26:00,42.4,19.8,31.21,NNW,333,0.0,4.0,40,0.00,,,0.02,WeatherCatV1.02B3,2013-11-29 17:26:00,
2013-11-29 12:31:00,41.9,21.1,31.22,NW,316,0.0,0.0,43,0.00,,,0.02,WeatherCatV1.02B3,2013-11-29 17:31:00,
2013-11-29 12:36:00,41.3,21.0,31.22,NW,305,0.0,0.0,44,0.00,,,0.02,WeatherCatV1.02B3,2013-11-29 17:36:00,
2013-11-29 12:41:00,40.4,20.8,31.22,NNW,335,0.0,0.0,45,0.00,,,0.02,WeatherCatV1.02B3,2013-11-29 17:41:00,
2013-11-29 12:46:00,40.1,22.0,31.23,NNW,336,0.0,1.0,48,0.00,,,0.02,WeatherCatV1.02B3,2013-11-29 17:46:00,
2013-11-29 12:51:00,40.2,22.1,31.23,NW,306,3.0,4.0,48,0.00,,,0.02,WeatherCatV1.02B3,2013-11-29 17:51:00,
2013-11-29 12:56:00,40.2,21.6,31.23,NNW,338,2.0,10.0,47,0.00,,,0.02,WeatherCatV1.02B3,2013-11-29 17:56:00,
2013-11-29 13:01:00,40.1,22.0,31.24,NW,318,0.0,0.0,48,0.00,,,0.02,WeatherCatV1.02B3,2013-11-29 18:01:00,
2013-11-29 13:06:00,39.9,21.8,31.24,NW,317,4.0,7.0,48,0.00,,,0.02,WeatherCatV1.02B3,2013-11-29 18:06:00,
2013-11-29 13:11:00,39.8,21.2,31.24,NW,315,0.0,0.0,47,0.00,,,0.02,WeatherCatV1.02B3,2013-11-29 18:11:00,
2013-11-29 13:16:00,39.7,22.1,31.24,NNW,336,0.0,6.0,49,0.00,,,0.02,WeatherCatV1.02B3,2013-11-29 18:16:00,
2013-11-29 13:21:00,39.7,21.1,31.23,NW,326,0.0,0.0,47,0.00,,,0.02,WeatherCatV1.02B3,2013-11-29 18:21:00,
2013-11-29 13:26:00,39.9,21.8,31.23,NW,317,0.0,0.0,48,0.00,,,0.02,WeatherCatV1.02B3,2013-11-29 18:26:00,
2013-11-29 13:31:00,40.2,21.1,31.23,NW,314,0.0,0.0,46,0.00,,,0.03,WeatherCatV1.02B3,2013-11-29 18:31:00,
2013-11-29 13:36:00,40.4,20.2,31.23,WSW,256,0.0,0.0,44,0.00,,,0.03,WeatherCatV1.02B3,2013-11-29 18:36:00,
2013-11-29 13:41:00,40.6,20.9,31.23,North,355,0.0,0.0,45,0.00,,,0.03,WeatherCatV1.02B3,2013-11-29 18:41:00,
2013-11-29 13:46:00,40.7,21.5,31.23,North,355,0.0,0.0,46,0.00,,,0.03,WeatherCatV1.02B3,2013-11-29 18:46:00,
2013-11-29 13:51:00,41.0,21.8,31.23,NW,315,0.0,0.0,46,0.00,,,0.03,WeatherCatV1.02B3,2013-11-29 18:51:00,
2013-11-29 13:56:00,40.9,21.2,31.23,NW,307,0.0,8.0,45,0.00,,,0.03,WeatherCatV1.02B3,2013-11-29 18:56:00,
2013-11-29 14:01:00,40.9,21.7,31.22,NW,307,0.0,0.0,46,0.00,,,0.03,WeatherCatV1.02B3,2013-11-29 19:01:00,
2013-11-29 14:06:00,41.1,21.4,31.22,NNW,328,0.0,0.0,45,0.00,,,0.03,WeatherCatV1.02B3,2013-11-29 19:06:00,
2013-11-29 14:11:00,41.5,22.3,31.22,NNW,333,0.0,2.0,46,0.00,,,0.03,WeatherCatV1.02B3,2013-11-29 19:11:00,
2013-11-29 14:16:00,41.2,21.0,31.22,NW,320,6.0,7.0,44,0.00,,,0.03,WeatherCatV1.02B3,2013-11-29 19:16:00,
2013-11-29 14:21:00,40.9,19.6,31.22,NW,318,0.0,0.0,42,0.00,,,0.03,WeatherCatV1.02B3,2013-11-29 19:21:00,
2013-11-29 14:26:00,40.9,17.9,31.23,NW,307,0.0,7.0,39,0.00,,,0.03,WeatherCatV1.02B3,2013-11-29 19:26:00,
2013-11-29 14:31:00,41.1,17.5,31.22,NW,315,0.0,0.0,38,0.00,,,0.03,WeatherCatV1.02B3,2013-11-29 19:31:00,
2013-11-29 14:36:00,41.1,15.6,31.23,NW,323,0.0,0.0,35,0.00,,,0.03,WeatherCatV1.02B3,2013-11-29 19:36:00,
2013-11-29 14:41:00,41.5,15.9,31.22,NW,313,0.0,0.0,35,0.00,,,0.03,WeatherCatV1.02B3,2013-11-29 19:41:00,
2013-11-29 14:46:00,41.4,20.6,31.22,NW,318,0.0,0.0,43,0.00,,,0.03,WeatherCatV1.02B3,2013-11-29 19:46:00,
2013-11-29 14:51:00,41.1,21.4,31.22,NNW,342,0.0,0.0,45,0.00,,,0.03,WeatherCatV1.02B3,2013-11-29 19:51:00,
2013-11-29 14:56:00,40.8,20.6,31.22,NW,323,0.0,0.0,44,0.00,,,0.03,WeatherCatV1.02B3,2013-11-29 19:56:00,
2013-11-29 15:01:00,40.7,16.5,31.25,NNW,340,0.0,1.0,37,0.00,,,0.03,WeatherCatV1.02B3,2013-11-29 20:01:00,
2013-11-29 15:06:00,41.0,12.0,31.25,North,350,0.0,0.0,30,0.00,,,0.03,WeatherCatV1.02B3,2013-11-29 20:06:00,
2013-11-29 15:11:00,41.3,12.2,31.25,NNW,327,0.0,0.0,30,0.00,,,0.03,WeatherCatV1.02B3,2013-11-29 20:11:00,
2013-11-29 15:16:00,41.3,13.7,31.25,WSW,252,0.0,2.0,32,0.00,,,0.03,WeatherCatV1.02B3,2013-11-29 20:16:00,
2013-11-29 15:21:00,41.5,12.4,31.25,SSW,207,0.0,0.0,30,0.00,,,0.03,WeatherCatV1.02B3,2013-11-29 20:21:00,
2013-11-29 15:26:00,41.8,8.6,31.25,NW,314,0.0,0.0,25,0.00,,,0.03,WeatherCatV1.02B3,2013-11-29 20:26:00,
2013-11-29 15:31:00,41.9,3.8,31.25,NW,314,0.0,0.0,20,0.00,,,0.03,WeatherCatV1.02B3,2013-11-29 20:31:00,
2013-11-29 15:36:00,42.2,6.1,31.25,NW,314,0.0,0.0,22,0.00,,,0.03,WeatherCatV1.02B3,2013-11-29 20:36:00,
2013-11-29 15:41:00,42.2,7.1,31.25,NW,325,0.0,0.0,23,0.00,,,0.03,WeatherCatV1.02B3,2013-11-29 20:41:00,
2013-11-29 15:46:00,42.1,6.0,31.25,NNW,330,0.0,0.0,22,0.00,,,0.03,WeatherCatV1.02B3,2013-11-29 20:46:00,
2013-11-29 15:51:00,42.2,4.0,31.25,NNW,330,0.0,1.0,20,0.00,,,0.03,WeatherCatV1.02B3,2013-11-29 20:51:00,
2013-11-29 15:56:00,42.2,6.1,31.25,NNW,330,0.0,0.0,22,0.00,,,0.03,WeatherCatV1.02B3,2013-11-29 20:56:00,
2013-11-29 16:01:00,42.2,4.0,31.23,NNW,330,0.0,0.0,20,0.00,,,0.03,WeatherCatV1.02B3,2013-11-29 21:01:00,
2013-11-29 16:06:00,42.1,7.0,31.24,NNW,330,0.0,0.0,23,0.00,,,0.03,WeatherCatV1.02B3,2013-11-29 21:06:00,
2013-11-29 16:11:00,42.0,8.8,31.24,NNW,330,0.0,0.0,25,0.00,,,0.03,WeatherCatV1.02B3,2013-11-29 21:11:00,
2013-11-29 16:16:00,41.7,11.0,31.24,NNW,330,0.0,0.0,28,0.00,,,0.03,WeatherCatV1.02B3,2013-11-29 21:16:00,
2013-11-29 16:21:00,41.5,13.9,31.24,NNW,330,0.0,0.0,32,0.00,,,0.03,WeatherCatV1.02B3,2013-11-29 21:21:00,
2013-11-29 16:26:00,41.5,13.9,31.24,NNW,330,0.0,0.0,32,0.00,,,0.03,WeatherCatV1.02B3,2013-11-29 21:26:00,
2013-11-29 16:31:00,41.4,13.1,31.24,NNW,330,0.0,0.0,31,0.00,,,0.03,WeatherCatV1.02B3,2013-11-29 21:31:00,
2013-11-29 16:36:00,41.1,12.1,31.25,NNW,330,0.0,0.0,30,0.00,,,0.03,WeatherCatV1.02B3,2013-11-29 21:36:00,
2013-11-29 16:41:00,40.8,13.3,31.25,NNW,330,0.0,0.0,32,0.00,,,0.03,WeatherCatV1.02B3,2013-11-29 21:41:00,
2013-11-29 16:46:00,40.5,14.4,31.25,NNW,330,0.0,0.0,34,0.00,,,0.03,WeatherCatV1.02B3,2013-11-29 21:46:00,
2013-11-29 16:51:00,40.1,16.6,31.25,NNW,330,0.0,0.0,38,0.00,,,0.03,WeatherCatV1.02B3,2013-11-29 21:51:00,
2013-11-29 16:56:00,39.7,18.5,31.25,NNW,330,0.0,0.0,42,0.00,,,0.03,WeatherCatV1.02B3,2013-11-29 21:56:00,
2013-11-29 17:01:00,39.3,17.6,31.28,NNW,330,0.0,0.0,41,0.00,,,0.03,WeatherCatV1.02B3,2013-11-29 22:01:00,
2013-11-29 17:06:00,38.9,17.8,31.28,NNW,330,0.0,0.0,42,0.00,,,0.03,WeatherCatV1.02B3,2013-11-29 22:06:00,
2013-11-29 17:11:00,38.5,16.9,31.28,NNW,330,0.0,0.0,41,0.00,,,0.03,WeatherCatV1.02B3,2013-11-29 22:11:00,
2013-11-29 17:16:00,38.2,18.2,31.29,NNW,330,0.0,0.0,44,0.00,,,0.03,WeatherCatV1.02B3,2013-11-29 22:16:00,
2013-11-29 17:21:00,37.9,19.0,31.29,NNW,329,0.0,0.0,46,0.00,,,0.03,WeatherCatV1.02B3,2013-11-29 22:21:00,
2013-11-29 17:26:00,37.6,19.7,31.29,NNW,329,0.0,0.0,48,0.00,,,0.03,WeatherCatV1.02B3,2013-11-29 22:26:00,
2013-11-29 17:31:00,37.2,20.3,31.29,NNW,329,0.0,0.0,50,0.00,,,0.03,WeatherCatV1.02B3,2013-11-29 22:31:00,
2013-11-29 17:36:00,36.7,20.8,31.29,NNW,329,0.0,0.0,52,0.00,,,0.03,WeatherCatV1.02B3,2013-11-29 22:36:00,
2013-11-29 17:41:00,36.2,20.7,31.31,NNW,329,0.0,0.0,53,0.00,,,0.03,WeatherCatV1.02B3,2013-11-29 22:41:00,
2013-11-29 17:46:00,35.8,20.8,31.31,NNW,329,0.0,0.0,54,0.00,,,0.03,WeatherCatV1.02B3,2013-11-29 22:46:00,
2013-11-29 17:51:00,35.5,21.0,31.31,NNW,329,0.0,0.0,55,0.00,,,0.03,WeatherCatV1.02B3,2013-11-29 22:51:00,
2013-11-29 17:56:00,35.3,21.2,31.31,NNW,329,0.0,0.0,56,0.00,,,0.03,WeatherCatV1.02B3,2013-11-29 22:56:00,
2013-11-29 18:01:00,34.9,20.8,31.30,NNW,329,0.0,0.0,56,0.00,,,0.03,WeatherCatV1.02B3,2013-11-29 23:01:00,
2013-11-29 18:06:00,34.6,21.4,31.31,NNW,329,0.0,0.0,58,0.00,,,0.03,WeatherCatV1.02B3,2013-11-29 23:06:00,
2013-11-29 18:11:00,34.4,20.8,31.32,NNW,329,0.0,0.0,57,0.00,,,0.03,WeatherCatV1.02B3,2013-11-29 23:11:00,
2013-11-29 18:16:00,34.2,21.8,31.32,NNW,329,0.0,0.0,60,0.00,,,0.03,WeatherCatV1.02B3,2013-11-29 23:16:00,
2013-11-29 18:21:00,33.8,21.8,31.32,NNW,329,0.0,0.0,61,0.00,,,0.03,WeatherCatV1.02B3,2013-11-29 23:21:00,
2013-11-29 18:26:00,33.5,21.5,31.32,NNW,329,0.0,0.0,61,0.00,,,0.03,WeatherCatV1.02B3,2013-11-29 23:26:00,
2013-11-29 18:31:00,33.3,21.3,31.32,NNW,329,0.0,0.0,61,0.00,,,0.03,WeatherCatV1.02B3,2013-11-29 23:31:00,
2013-11-29 18:36:00,33.0,20.7,31.33,NNW,329,0.0,0.0,60,0.00,,,0.03,WeatherCatV1.02B3,2013-11-29 23:36:00,
2013-11-29 18:41:00,32.7,21.9,31.33,NNW,329,0.0,0.0,64,0.00,,,0.03,WeatherCatV1.02B3,2013-11-29 23:41:00,
2013-11-29 18:46:00,32.4,21.2,31.33,NNW,329,0.0,0.0,63,0.00,,,0.03,WeatherCatV1.02B3,2013-11-29 23:46:00,
2013-11-29 18:51:00,32.2,21.0,31.33,NNW,329,0.0,0.0,63,0.00,,,0.03,WeatherCatV1.02B3,2013-11-29 23:51:00,
2013-11-29 18:56:00,32.0,20.9,31.34,NNW,329,0.0,0.0,63,0.00,,,0.03,WeatherCatV1.02B3,2013-11-29 23:56:00,
2013-11-29 19:01:00,31.8,21.0,31.33,NNW,329,0.0,0.0,64,0.00,,,0.03,WeatherCatV1.02B3,2013-11-30 00:01:00,
2013-11-29 19:06:00,31.6,21.9,31.33,NNW,329,0.0,0.0,67,0.00,,,0.03,WeatherCatV1.02B3,2013-11-30 00:06:00,
2013-11-29 19:11:00,31.4,21.7,31.34,NNW,329,0.0,0.0,67,0.00,,,0.03,WeatherCatV1.02B3,2013-11-30 00:11:00,
2013-11-29 19:16:00,31.3,20.9,31.34,NNW,329,0.0,0.0,65,0.00,,,0.03,WeatherCatV1.02B3,2013-11-30 00:16:00,
2013-11-29 19:21:00,31.3,21.3,31.34,NNW,329,0.0,0.0,66,0.00,,,0.03,WeatherCatV1.02B3,2013-11-30 00:21:00,
2013-11-29 19:26:00,31.1,21.1,31.34,NNW,329,0.0,0.0,66,0.00,,,0.03,WeatherCatV1.02B3,2013-11-30 00:26:00,
2013-11-29 19:31:00,31.0,21.3,31.35,NNW,329,0.0,0.0,67,0.00,,,0.03,WeatherCatV1.02B3,2013-11-30 00:31:00,
2013-11-29 19:36:00,30.8,21.5,31.35,NNW,329,0.0,0.0,68,0.00,,,0.03,WeatherCatV1.02B3,2013-11-30 00:36:00,
2013-11-29 19:41:00,30.7,21.4,31.34,NNW,329,0.0,0.0,68,0.00,,,0.03,WeatherCatV1.02B3,2013-11-30 00:41:00,
2013-11-29 19:46:00,30.6,21.3,31.35,NNW,329,0.0,0.0,68,0.00,,,0.03,WeatherCatV1.02B3,2013-11-30 00:46:00,
2013-11-29 19:51:00,30.5,21.6,31.34,NNW,329,0.0,0.0,69,0.00,,,0.03,WeatherCatV1.02B3,2013-11-30 00:51:00,
2013-11-29 19:56:00,30.3,21.4,31.35,NNW,329,0.0,0.0,69,0.00,,,0.03,WeatherCatV1.02B3,2013-11-30 00:56:00,
2013-11-29 20:01:00,30.2,21.3,31.30,NNW,329,0.0,0.0,69,0.00,,,0.03,WeatherCatV1.02B3,2013-11-30 01:01:00,
2013-11-29 20:06:00,30.1,20.8,31.30,NNW,329,0.0,0.0,68,0.00,,,0.03,WeatherCatV1.02B3,2013-11-30 01:06:00,
2013-11-29 20:11:00,30.1,20.8,31.30,NNW,329,0.0,0.0,68,0.00,,,0.03,WeatherCatV1.02B3,2013-11-30 01:11:00,
2013-11-29 20:16:00,30.0,20.4,31.30,NNW,329,0.0,0.0,67,0.00,,,0.03,WeatherCatV1.02B3,2013-11-30 01:16:00,
2013-11-29 20:21:00,30.1,20.5,31.30,NNW,329,0.0,0.0,67,0.00,,,0.03,WeatherCatV1.02B3,2013-11-30 01:21:00,
2013-11-29 20:26:00,30.1,20.5,31.30,NNW,329,0.0,0.0,67,0.00,,,0.03,WeatherCatV1.02B3,2013-11-30 01:26:00,
2013-11-29 20:31:00,30.0,20.4,31.31,NNW,329,0.0,0.0,67,0.00,,,0.03,WeatherCatV1.02B3,2013-11-30 01:31:00,
2013-11-29 20:36:00,29.9,20.6,31.31,NNW,329,0.0,0.0,68,0.00,,,0.03,WeatherCatV1.02B3,2013-11-30 01:36:00,
2013-11-29 20:41:00,29.6,21.0,31.31,NNW,329,0.0,0.0,70,0.00,,,0.03,WeatherCatV1.02B3,2013-11-30 01:41:00,
2013-11-29 20:46:00,29.4,20.8,31.31,NNW,329,0.0,0.0,70,0.00,,,0.03,WeatherCatV1.02B3,2013-11-30 01:46:00,
2013-11-29 20:51:00,29.4,20.5,31.31,NNW,329,0.0,0.0,69,0.00,,,0.03,WeatherCatV1.02B3,2013-11-30 01:51:00,
2013-11-29 20:56:00,29.4,20.8,31.30,NNW,329,0.0,0.0,70,0.00,,,0.03,WeatherCatV1.02B3,2013-11-30 01:56:00,
2013-11-29 21:01:00,29.4,20.8,31.28,NNW,329,0.0,0.0,70,0.00,,,0.03,WeatherCatV1.02B3,2013-11-30 02:01:00,
2013-11-29 21:06:00,29.3,21.4,31.28,NNW,329,0.0,0.0,72,0.00,,,0.03,WeatherCatV1.02B3,2013-11-30 02:06:00,
2013-11-29 21:11:00,29.1,21.2,31.28,NNW,329,0.0,0.0,72,0.00,,,0.03,WeatherCatV1.02B3,2013-11-30 02:11:00,
2013-11-29 21:16:00,29.1,21.2,31.29,NNW,329,0.0,0.0,72,0.00,,,0.03,WeatherCatV1.02B3,2013-11-30 02:16:00,
2013-11-29 21:21:00,29.1,21.2,31.28,NNW,329,0.0,0.0,72,0.00,,,0.03,WeatherCatV1.02B3,2013-11-30 02:21:00,
2013-11-29 21:26:00,29.0,21.4,31.28,NNW,329,0.0,0.0,73,0.00,,,0.03,WeatherCatV1.02B3,2013-11-30 02:26:00,
2013-11-29 21:31:00,28.8,21.6,31.29,NNW,329,0.0,0.0,74,0.00,,,0.03,WeatherCatV1.02B3,2013-11-30 02:31:00,
2013-11-29 21:36:00,28.7,21.5,31.29,NNW,329,0.0,0.0,74,0.00,,,0.03,WeatherCatV1.02B3,2013-11-30 02:36:00,
2013-11-29 21:41:00,28.6,21.7,31.29,NNW,329,0.0,0.0,75,0.00,,,0.03,WeatherCatV1.02B3,2013-11-30 02:41:00,
2013-11-29 21:46:00,28.4,21.5,31.29,NNW,329,0.0,0.0,75,0.00,,,0.03,WeatherCatV1.02B3,2013-11-30 02:46:00,
2013-11-29 21:51:00,28.4,21.5,31.30,NNW,329,0.0,0.0,75,0.00,,,0.03,WeatherCatV1.02B3,2013-11-30 02:51:00,
2013-11-29 21:56:00,28.3,21.4,31.30,NNW,329,0.0,0.0,75,0.00,,,0.03,WeatherCatV1.02B3,2013-11-30 02:56:00,
2013-11-29 22:01:00,28.3,20.8,31.30,NNW,329,0.0,0.0,73,0.00,,,0.03,WeatherCatV1.02B3,2013-11-30 03:01:00,
2013-11-29 22:06:00,28.3,21.1,31.30,NNW,329,0.0,0.0,74,0.00,,,0.03,WeatherCatV1.02B3,2013-11-30 03:06:00,
2013-11-29 22:11:00,28.2,21.0,31.30,NNW,329,0.0,0.0,74,0.00,,,0.03,WeatherCatV1.02B3,2013-11-30 03:11:00,
2013-11-29 22:17:00,28.2,21.3,31.30,NNW,329,0.0,0.0,75,0.00,,,0.03,WeatherCatV1.02B3,2013-11-30 03:17:00,
2013-11-29 22:22:00,28.1,20.9,31.30,NNW,329,0.0,0.0,74,0.00,,,0.03,WeatherCatV1.02B3,2013-11-30 03:22:00,
2013-11-29 22:27:00,28.0,21.1,31.30,NNW,329,0.0,0.0,75,0.00,,,0.03,WeatherCatV1.02B3,2013-11-30 03:27:00,
2013-11-29 22:32:00,27.8,20.9,31.30,NNW,329,0.0,0.0,75,0.00,,,0.03,WeatherCatV1.02B3,2013-11-30 03:32:00,
2013-11-29 22:37:00,27.6,21.0,31.30,NNW,329,0.0,0.0,76,0.00,,,0.03,WeatherCatV1.02B3,2013-11-30 03:37:00,
2013-11-29 22:42:00,27.5,21.3,31.30,NNW,329,0.0,0.0,77,0.00,,,0.03,WeatherCatV1.02B3,2013-11-30 03:42:00,
2013-11-29 22:47:00,27.3,20.8,31.30,NNW,329,0.0,0.0,76,0.00,,,0.03,WeatherCatV1.02B3,2013-11-30 03:47:00,
2013-11-29 22:52:00,27.2,20.0,31.30,NNW,329,0.0,0.0,74,0.00,,,0.03,WeatherCatV1.02B3,2013-11-30 03:52:00,
2013-11-29 22:57:00,27.2,20.7,31.30,NNW,329,0.0,0.0,76,0.00,,,0.03,WeatherCatV1.02B3,2013-11-30 03:57:00,
2013-11-29 23:02:00,27.0,20.5,31.30,NNW,329,0.0,0.0,76,0.00,,,0.03,WeatherCatV1.02B3,2013-11-30 04:02:00,
2013-11-29 23:07:00,26.9,20.1,31.30,NNW,329,0.0,0.0,75,0.00,,,0.03,WeatherCatV1.02B3,2013-11-30 04:07:00,
2013-11-29 23:12:00,26.8,20.3,31.30,NNW,329,0.0,0.0,76,0.00,,,0.03,WeatherCatV1.02B3,2013-11-30 04:12:00,
2013-11-29 23:17:00,26.7,20.2,31.30,NNW,329,0.0,0.0,76,0.00,,,0.03,WeatherCatV1.02B3,2013-11-30 04:17:00,
2013-11-29 23:22:00,26.6,20.1,31.30,NNW,329,0.0,0.0,76,0.00,,,0.03,WeatherCatV1.02B3,2013-11-30 04:22:00,
2013-11-29 23:27:00,26.5,20.3,31.30,NNW,329,0.0,0.0,77,0.00,,,0.03,WeatherCatV1.02B3,2013-11-30 04:27:00,
2013-11-29 23:32:00,26.3,20.1,31.30,NNW,329,0.0,0.0,77,0.00,,,0.03,WeatherCatV1.02B3,2013-11-30 04:32:00,
2013-11-29 23:37:00,26.2,20.0,31.30,NNW,329,0.0,0.0,77,0.00,,,0.03,WeatherCatV1.02B3,2013-11-30 04:37:00,
2013-11-29 23:42:00,26.2,20.0,31.30,NNW,329,0.0,0.0,77,0.00,,,0.03,WeatherCatV1.02B3,2013-11-30 04:42:00,
2013-11-29 23:47:00,26.1,19.6,31.30,NNW,329,0.0,0.0,76,0.00,,,0.03,WeatherCatV1.02B3,2013-11-30 04:47:00,
2013-11-29 23:52:00,25.9,19.4,31.30,NNW,329,0.0,0.0,76,0.00,,,0.03,WeatherCatV1.02B3,2013-11-30 04:52:00,
2013-11-29 23:57:00,25.9,19.4,31.30,NNW,329,0.0,0.0,76,0.00,,,0.03,WeatherCatV1.02B3,2013-11-30 04:57:00,